Time;durP1;ratioP1;P1;durP2;ratioP2;P2;SDS_P1;SDS_P2;PMS_P1;PMS_P2;Temp;Humidity;BMP_temperature;BMP_pressure;BME280_temperature;BME280_humidity;BME280_pressure;Samples;Min_cycle;Max_cycle;Signal;HPM_P1;HPM_P2
2023/08/28 00:01:02;;;;;;;2.83;1.20;;;12.60;99.90;;;;;;4993126;28;20185;-88
2023/08/28 00:03:27;;;;;;;1.90;1.05;;;12.60;99.90;;;;;;4992145;28;20072;-88
2023/08/28 00:05:53;;;;;;;1.23;1.00;;;12.70;99.90;;;;;;4993379;28;20455;-88
2023/08/28 00:08:18;;;;;;;3.55;1.27;;;12.70;99.90;;;;;;4994103;28;20049;-88
2023/08/28 00:10:44;;;;;;;1.15;1.02;;;12.70;99.90;;;;;;4992977;28;20019;-88
2023/08/28 00:13:10;;;;;;;1.85;1.25;;;12.80;99.90;;;;;;4993912;28;20026;-88
2023/08/28 00:15:35;;;;;;;4.53;1.60;;;12.80;99.90;;;;;;4992794;28;20076;-88
2023/08/28 00:18:01;;;;;;;3.05;1.23;;;12.70;99.90;;;;;;4994050;28;20122;-88
2023/08/28 00:20:27;;;;;;;3.20;1.48;;;12.70;99.90;;;;;;4994093;28;20093;-88
2023/08/28 00:22:52;;;;;;;3.08;1.40;;;12.70;99.90;;;;;;4995073;28;20023;-89
2023/08/28 00:25:18;;;;;;;1.83;1.63;;;12.70;99.90;;;;;;4993365;28;20022;-87
2023/08/28 00:27:44;;;;;;;1.83;1.25;;;12.60;99.90;;;;;;4993031;28;20026;-87
2023/08/28 00:30:10;;;;;;;3.20;1.20;;;12.70;99.90;;;;;;4991218;28;20384;-88
2023/08/28 00:32:36;;;;;;;3.17;1.50;;;12.60;99.90;;;;;;4991505;28;20516;-87
2023/08/28 00:35:01;;;;;;;6.60;1.90;;;12.60;99.90;;;;;;4993425;28;20037;-88
2023/08/28 00:37:27;;;;;;;3.38;1.90;;;12.60;99.90;;;;;;4991990;28;20037;-87
2023/08/28 00:39:52;;;;;;;4.43;1.50;;;12.60;99.90;;;;;;4992560;28;20559;-87
2023/08/28 00:42:18;;;;;;;4.15;1.58;;;12.60;99.90;;;;;;4992122;28;20109;-87
2023/08/28 00:44:44;;;;;;;2.92;1.42;;;12.60;99.90;;;;;;4992260;28;20018;-87
2023/08/28 00:47:10;;;;;;;3.20;1.40;;;12.60;99.90;;;;;;4992503;28;20057;-87
2023/08/28 00:49:36;;;;;;;1.50;1.40;;;12.60;99.90;;;;;;4991537;28;20029;-87
2023/08/28 00:52:03;;;;;;;3.13;1.60;;;12.60;99.90;;;;;;4989804;28;20046;-87
2023/08/28 00:54:30;;;;;;;2.30;1.20;;;12.60;99.90;;;;;;4990915;28;20039;-86
2023/08/28 00:56:56;;;;;;;3.17;1.40;;;12.60;99.90;;;;;;4991081;28;20419;-88
2023/08/28 00:59:23;;;;;;;3.50;1.30;;;12.60;99.90;;;;;;5002208;28;20160;-87
2023/08/28 01:01:48;;;;;;;2.88;1.70;;;12.60;99.90;;;;;;5003924;28;20015;-87
2023/08/28 01:04:14;;;;;;;3.15;1.63;;;12.60;99.90;;;;;;5001923;28;20049;-86
2023/08/28 01:07:09;;;;;;;2.67;1.65;;;12.60;99.90;;;;;;5002352;28;20057;-86
2023/08/28 01:10:12;;;;;;;2.15;1.50;;;12.60;99.90;;;;;;5013208;28;20046;-88
2023/08/28 01:12:59;;;;;;;4.28;1.90;;;12.60;99.90;;;;;;4998167;28;20058;-87
2023/08/28 01:15:26;;;;;;;2.22;1.50;;;12.50;99.90;;;;;;5000298;28;20722;-87
2023/08/28 01:17:58;;;;;;;2.42;1.52;;;12.50;99.90;;;;;;5000805;28;20438;-87
2023/08/28 01:20:25;;;;;;;2.53;1.50;;;12.50;99.90;;;;;;5001727;28;20176;-88
2023/08/28 01:22:56;;;;;;;2.95;1.73;;;12.60;99.90;;;;;;5002217;28;20014;-88
2023/08/28 01:25:23;;;;;;;2.97;1.40;;;12.60;99.90;;;;;;4999310;28;20030;-88
2023/08/28 01:27:49;;;;;;;2.78;1.55;;;12.60;99.90;;;;;;5000980;28;20439;-89
2023/08/28 01:30:16;;;;;;;3.30;1.30;;;12.60;99.90;;;;;;5000390;28;20019;-88
2023/08/28 01:32:44;;;;;;;2.25;1.48;;;12.60;99.90;;;;;;5002429;28;20021;-87
2023/08/28 01:35:15;;;;;;;2.20;1.50;;;12.60;99.90;;;;;;4998868;28;20038;-87
2023/08/28 01:37:57;;;;;;;2.13;1.63;;;12.60;99.90;;;;;;4992171;28;20023;-87
2023/08/28 01:40:29;;;;;;;2.90;1.40;;;12.60;99.90;;;;;;4993687;28;20039;-86
2023/08/28 01:42:56;;;;;;;2.47;1.40;;;12.60;99.90;;;;;;4996854;28;20511;-87
2023/08/28 01:45:22;;;;;;;1.50;1.40;;;12.60;99.90;;;;;;5000366;28;20129;-87
2023/08/28 01:47:48;;;;;;;1.90;1.30;;;12.60;99.90;;;;;;4998645;28;20045;-87
2023/08/28 01:50:14;;;;;;;2.10;1.50;;;12.60;99.90;;;;;;4998451;28;20050;-87
2023/08/28 01:52:40;;;;;;;5.25;1.60;;;12.60;99.90;;;;;;5016408;28;20071;-88
2023/08/28 01:55:06;;;;;;;2.72;1.70;;;12.50;99.90;;;;;;4998909;28;20563;-87
2023/08/28 01:57:31;;;;;;;2.45;1.38;;;12.50;99.90;;;;;;4999148;28;20044;-87
2023/08/28 01:59:57;;;;;;;2.00;1.70;;;12.50;99.90;;;;;;4999277;28;20479;-87
2023/08/28 02:02:23;;;;;;;4.25;2.00;;;12.40;99.90;;;;;;4998489;28;20030;-87
2023/08/28 02:04:48;;;;;;;3.10;2.13;;;12.40;99.90;;;;;;4998142;28;20032;-87
2023/08/28 02:07:14;;;;;;;3.47;2.20;;;12.40;99.90;;;;;;5016265;28;20029;-87
2023/08/28 02:09:40;;;;;;;2.22;1.52;;;12.40;99.90;;;;;;4998570;28;20036;-87
2023/08/28 02:12:06;;;;;;;4.00;1.90;;;12.40;99.90;;;;;;4997739;28;20037;-85
2023/08/28 02:14:32;;;;;;;4.03;1.70;;;12.40;99.90;;;;;;4997534;28;20069;-86
2023/08/28 02:16:57;;;;;;;3.35;1.90;;;12.40;99.90;;;;;;4997844;28;20061;-87
2023/08/28 02:19:23;;;;;;;3.45;1.80;;;12.40;99.90;;;;;;4997942;28;20064;-87
2023/08/28 02:21:49;;;;;;;3.97;1.73;;;12.50;99.90;;;;;;4997757;28;20033;-87
2023/08/28 02:24:14;;;;;;;3.70;2.05;;;12.40;99.90;;;;;;5015549;28;20030;-86
2023/08/28 02:26:40;;;;;;;1.90;1.60;;;12.40;99.90;;;;;;5015305;28;20084;-87
2023/08/28 02:29:06;;;;;;;3.42;1.42;;;12.40;99.90;;;;;;5016192;28;20064;-86
2023/08/28 02:31:31;;;;;;;5.97;1.83;;;12.40;99.90;;;;;;5015724;28;20029;-87
2023/08/28 02:33:57;;;;;;;2.13;1.80;;;12.40;99.90;;;;;;4997934;28;20034;-86
2023/08/28 02:36:22;;;;;;;2.95;1.70;;;12.40;99.90;;;;;;4997701;28;20147;-86
2023/08/28 02:38:48;;;;;;;3.85;1.60;;;12.30;99.90;;;;;;5015790;28;20026;-85
2023/08/28 02:41:14;;;;;;;2.10;1.63;;;12.30;99.90;;;;;;5015733;28;20053;-88
2023/08/28 02:43:39;;;;;;;2.15;1.38;;;12.30;99.90;;;;;;4998179;28;20117;-87
2023/08/28 02:46:05;;;;;;;6.18;1.50;;;12.20;99.90;;;;;;4997982;28;20132;-87
2023/08/28 02:48:31;;;;;;;1.95;1.30;;;12.20;99.90;;;;;;4998864;28;20503;-86
2023/08/28 02:50:56;;;;;;;3.08;1.60;;;12.20;99.90;;;;;;4998408;28;20462;-86
2023/08/28 02:53:22;;;;;;;1.65;1.50;;;12.20;99.90;;;;;;4997160;28;20476;-86
2023/08/28 02:56:17;;;;;;;1.33;1.13;;;12.20;99.90;;;;;;5015061;28;20391;-86
2023/08/28 02:58:43;;;;;;;5.28;1.50;;;12.10;99.90;;;;;;4997905;28;20533;-86
2023/08/28 03:01:09;;;;;;;1.70;1.60;;;12.10;99.90;;;;;;4997966;28;20041;-87
2023/08/28 03:03:34;;;;;;;2.28;1.30;;;12.10;99.90;;;;;;4997409;28;20029;-87
2023/08/28 03:06:01;;;;;;;1.90;1.35;;;12.10;99.90;;;;;;4997585;28;20057;-86
2023/08/28 03:08:31;;;;;;;2.38;1.50;;;12.00;99.90;;;;;;4996960;28;20025;-87
2023/08/28 03:10:56;;;;;;;3.58;1.70;;;12.00;99.90;;;;;;5015171;28;20029;-86
2023/08/28 03:13:22;;;;;;;1.70;1.60;;;12.00;99.90;;;;;;4997234;28;20031;-86
2023/08/28 03:15:47;;;;;;;2.53;1.50;;;12.00;99.90;;;;;;4997520;28;20033;-86
2023/08/28 03:18:13;;;;;;;3.53;1.48;;;12.00;99.90;;;;;;5014819;28;20375;-87
2023/08/28 03:20:39;;;;;;;2.42;1.40;;;11.90;99.90;;;;;;5015009;28;20164;-86
2023/08/28 03:23:04;;;;;;;1.67;1.40;;;11.90;99.90;;;;;;5014597;28;20022;-87
2023/08/28 03:25:30;;;;;;;2.30;1.50;;;11.90;99.90;;;;;;5007452;28;20105;-87
2023/08/28 03:27:55;;;;;;;2.28;1.58;;;11.80;99.90;;;;;;4993667;28;20480;-87
2023/08/28 03:30:21;;;;;;;2.03;1.50;;;11.80;99.90;;;;;;4994733;28;20030;-86
2023/08/28 03:32:47;;;;;;;1.63;1.27;;;11.80;99.90;;;;;;4977247;28;20069;-86
2023/08/28 03:35:13;;;;;;;5.22;1.48;;;11.80;99.90;;;;;;4977114;28;20042;-87
2023/08/28 03:37:38;;;;;;;3.38;1.52;;;11.80;99.90;;;;;;4977465;28;20443;-87
2023/08/28 03:40:05;;;;;;;4.78;1.67;;;11.70;99.90;;;;;;4994995;28;20022;-88
2023/08/28 03:42:30;;;;;;;2.00;1.58;;;11.70;99.90;;;;;;4977610;28;20027;-87
2023/08/28 03:44:56;;;;;;;1.98;1.45;;;11.70;99.90;;;;;;4994651;28;20018;-88
2023/08/28 03:47:21;;;;;;;4.40;1.60;;;11.70;99.90;;;;;;4994669;28;20031;-87
2023/08/28 03:49:47;;;;;;;2.85;1.50;;;11.70;99.90;;;;;;4977440;28;20103;-87
2023/08/28 03:52:13;;;;;;;1.88;1.40;;;11.70;99.90;;;;;;4994669;28;20058;-88
2023/08/28 03:54:38;;;;;;;2.25;1.30;;;11.70;99.90;;;;;;4977531;28;20104;-87
2023/08/28 03:57:06;;;;;;;1.88;1.40;;;11.70;99.90;;;;;;4994195;28;20027;-88
2023/08/28 03:59:31;;;;;;;4.18;1.90;;;11.70;99.90;;;;;;4994393;28;20037;-87
2023/08/28 04:01:57;;;;;;;2.20;1.80;;;11.80;99.90;;;;;;4994485;28;20027;-88
2023/08/28 04:04:22;;;;;;;2.28;1.30;;;11.80;99.90;;;;;;4994137;28;20023;-87
2023/08/28 04:06:48;;;;;;;2.45;1.55;;;11.80;99.90;;;;;;4993752;28;20068;-88
2023/08/28 04:09:14;;;;;;;1.83;1.67;;;11.80;99.90;;;;;;4994096;28;20084;-87
2023/08/28 04:11:40;;;;;;;4.15;1.90;;;11.90;99.90;;;;;;4994312;28;20034;-87
2023/08/28 04:14:06;;;;;;;3.72;2.13;;;11.90;99.90;;;;;;4976510;28;20053;-88
2023/08/28 04:16:32;;;;;;;2.83;2.25;;;11.90;99.90;;;;;;4977216;28;20026;-88
2023/08/28 04:18:58;;;;;;;2.80;1.65;;;11.90;99.90;;;;;;4994645;28;20026;-88
2023/08/28 04:21:23;;;;;;;2.22;1.92;;;12.00;99.90;;;;;;4976613;28;20117;-87
2023/08/28 04:23:49;;;;;;;4.65;1.75;;;12.00;99.90;;;;;;4977151;28;20030;-87
2023/08/28 04:26:15;;;;;;;3.85;2.50;;;12.00;99.90;;;;;;4977390;28;20029;-88
2023/08/28 04:28:40;;;;;;;3.13;1.90;;;12.00;99.90;;;;;;4977689;28;20034;-88
2023/08/28 04:31:09;;;;;;;2.42;1.58;;;12.10;99.90;;;;;;4976928;28;20034;-88
2023/08/28 04:33:34;;;;;;;3.03;1.45;;;12.10;99.90;;;;;;4994385;28;20105;-88
2023/08/28 04:36:00;;;;;;;1.30;1.20;;;12.10;99.90;;;;;;4995693;28;20084;-88
2023/08/28 04:38:26;;;;;;;3.35;1.50;;;12.10;99.90;;;;;;4980593;28;20393;-88
2023/08/28 04:40:51;;;;;;;1.40;1.27;;;12.20;99.90;;;;;;4977023;28;20026;-88
2023/08/28 04:43:17;;;;;;;3.38;1.48;;;12.20;99.90;;;;;;4994551;28;20109;-89
2023/08/28 04:45:42;;;;;;;1.90;1.30;;;12.30;99.90;;;;;;5011793;28;20454;-88
2023/08/28 04:48:08;;;;;;;2.47;1.55;;;12.30;99.90;;;;;;5013675;28;20026;-88
2023/08/28 04:50:34;;;;;;;1.38;1.27;;;12.30;99.90;;;;;;4995083;28;20025;-87
2023/08/28 04:52:59;;;;;;;2.10;1.35;;;12.30;99.90;;;;;;5013431;28;20251;-88
2023/08/28 04:55:25;;;;;;;2.70;1.30;;;12.30;99.90;;;;;;4995708;28;20038;-89
2023/08/28 04:57:50;;;;;;;1.88;1.40;;;12.40;99.90;;;;;;4995957;28;20030;-88
2023/08/28 05:00:16;;;;;;;1.45;1.35;;;12.40;99.90;;;;;;4996930;28;20028;-88
2023/08/28 05:02:42;;;;;;;3.55;1.92;;;12.50;99.90;;;;;;5014688;28;20037;-88
2023/08/28 05:05:07;;;;;;;2.83;1.80;;;12.50;99.90;;;;;;4998744;28;20029;-88
2023/08/28 05:07:33;;;;;;;2.25;1.40;;;12.50;99.90;;;;;;4997331;28;20065;-88
2023/08/28 05:09:59;;;;;;;3.22;1.40;;;12.50;99.90;;;;;;4997089;28;20157;-88
2023/08/28 05:12:24;;;;;;;3.22;1.63;;;12.60;99.90;;;;;;5013598;28;20033;-89
2023/08/28 05:14:50;;;;;;;2.13;1.50;;;12.60;99.90;;;;;;4995803;28;20038;-88
2023/08/28 05:17:16;;;;;;;1.65;1.30;;;12.60;99.90;;;;;;4996270;28;20052;-88
2023/08/28 05:19:42;;;;;;;6.60;1.63;;;12.60;99.90;;;;;;4995726;28;20033;-87
2023/08/28 05:22:07;;;;;;;2.03;1.38;;;12.70;99.90;;;;;;4995929;28;20376;-88
2023/08/28 05:24:33;;;;;;;1.50;1.40;;;12.70;99.90;;;;;;4995376;28;20037;-87
2023/08/28 05:26:58;;;;;;;3.42;1.70;;;12.70;99.90;;;;;;4997287;28;20129;-88
2023/08/28 05:29:24;;;;;;;3.33;1.65;;;12.70;99.90;;;;;;4995559;28;20022;-88
2023/08/28 05:31:50;;;;;;;5.47;2.28;;;12.70;99.90;;;;;;4995462;28;20488;-88
2023/08/28 05:34:16;;;;;;;3.50;1.70;;;12.80;99.90;;;;;;4995972;28;20030;-88
2023/08/28 05:36:41;;;;;;;2.40;1.73;;;12.80;99.90;;;;;;4995764;28;20340;-87
2023/08/28 05:39:07;;;;;;;5.03;1.75;;;12.80;99.90;;;;;;5013489;28;20030;-87
2023/08/28 05:41:33;;;;;;;4.22;1.50;;;12.80;99.90;;;;;;4995523;28;20026;-88
2023/08/28 05:43:59;;;;;;;3.00;1.38;;;12.80;99.90;;;;;;5013124;28;20041;-87
2023/08/28 05:46:24;;;;;;;3.92;1.50;;;12.80;99.90;;;;;;4994991;28;20075;-87
2023/08/28 05:48:50;;;;;;;5.10;1.60;;;12.80;99.90;;;;;;4994917;28;20030;-87
2023/08/28 05:51:16;;;;;;;3.92;1.60;;;12.90;99.90;;;;;;5015391;28;20361;-88
2023/08/28 05:53:41;;;;;;;7.22;1.67;;;12.80;99.90;;;;;;4996143;28;20103;-87
2023/08/28 05:56:07;;;;;;;4.78;1.50;;;12.80;99.90;;;;;;4996685;28;20026;-88
2023/08/28 05:58:32;;;;;;;2.45;1.42;;;12.80;99.90;;;;;;4995487;28;20033;-88
2023/08/28 06:00:58;;;;;;;4.57;1.60;;;12.80;99.90;;;;;;4996109;28;20033;-87
2023/08/28 06:03:24;;;;;;;5.45;1.98;;;12.80;99.90;;;;;;4996104;28;20038;-88
2023/08/28 06:05:50;;;;;;;8.98;1.70;;;12.80;99.90;;;;;;5012602;28;20026;-87
2023/08/28 06:08:16;;;;;;;6.97;1.73;;;12.80;99.90;;;;;;4995117;28;20022;-88
2023/08/28 06:10:42;;;;;;;6.00;1.85;;;12.70;99.90;;;;;;4995504;28;20045;-88
2023/08/28 06:13:08;;;;;;;15.63;2.50;;;12.70;99.90;;;;;;4994972;28;20476;-88
2023/08/28 06:15:34;;;;;;;8.93;2.08;;;12.70;99.90;;;;;;4996251;28;20611;-89
2023/08/28 06:18:00;;;;;;;9.77;2.38;;;12.70;99.90;;;;;;5012768;28;20088;-88
2023/08/28 06:20:25;;;;;;;11.05;2.25;;;12.70;99.90;;;;;;4991845;28;20475;-87
2023/08/28 06:22:51;;;;;;;5.75;1.95;;;12.60;99.90;;;;;;4992886;28;20068;-88
2023/08/28 06:25:17;;;;;;;8.30;1.90;;;12.60;99.90;;;;;;4994980;28;20073;-89
2023/08/28 06:27:43;;;;;;;8.60;1.83;;;12.60;99.90;;;;;;4998361;28;20036;-89
2023/08/28 06:30:09;;;;;;;8.68;2.17;;;12.60;99.90;;;;;;5017804;28;20018;-89
2023/08/28 06:32:35;;;;;;;8.13;1.88;;;12.60;99.90;;;;;;5015493;28;20049;-89
2023/08/28 06:35:01;;;;;;;10.93;2.70;;;12.60;99.90;;;;;;4999260;28;20030;-89
2023/08/28 06:37:27;;;;;;;6.20;1.73;;;12.60;99.90;;;;;;5003954;28;20026;-88
2023/08/28 06:39:53;;;;;;;7.28;1.65;;;12.70;99.90;;;;;;5004712;28;20026;-89
2023/08/28 06:42:19;;;;;;;8.38;1.70;;;12.70;99.90;;;;;;5001197;28;20026;-88
2023/08/28 06:44:44;;;;;;;7.55;1.77;;;12.70;99.90;;;;;;4997737;28;20033;-87
2023/08/28 06:47:10;;;;;;;6.93;1.85;;;12.80;99.90;;;;;;5015863;28;20097;-88
2023/08/28 06:49:36;;;;;;;8.10;1.73;;;12.80;99.90;;;;;;4998814;28;20030;-90
2023/08/28 06:52:04;;;;;;;10.93;2.25;;;12.80;99.90;;;;;;5013668;28;20610;-88
2023/08/28 06:54:29;;;;;;;9.93;2.00;;;12.90;99.90;;;;;;4996819;28;20685;-87
2023/08/28 06:56:55;;;;;;;8.32;1.88;;;12.90;99.90;;;;;;4997951;28;20022;-89
2023/08/28 06:59:21;;;;;;;8.65;2.20;;;12.90;99.90;;;;;;5015628;28;20026;-90
2023/08/28 07:01:46;;;;;;;9.10;2.22;;;12.90;99.90;;;;;;5015220;28;20045;-89
2023/08/28 07:04:12;;;;;;;7.70;1.75;;;13.00;99.90;;;;;;4998626;28;20022;-90
2023/08/28 07:06:38;;;;;;;9.10;2.03;;;13.00;99.90;;;;;;5010421;28;20064;-89
2023/08/28 07:09:04;;;;;;;7.13;1.73;;;13.10;99.90;;;;;;4998204;28;20037;-89
2023/08/28 07:11:29;;;;;;;7.68;1.48;;;13.10;99.90;;;;;;4997947;28;20399;-89
2023/08/28 07:13:55;;;;;;;9.82;1.77;;;13.10;99.90;;;;;;5015277;28;20097;-90
2023/08/28 07:16:20;;;;;;;6.05;1.73;;;13.10;99.90;;;;;;4997331;28;20094;-90
2023/08/28 07:18:46;;;;;;;8.77;2.10;;;13.10;99.90;;;;;;4997708;28;20033;-89
2023/08/28 07:21:12;;;;;;;11.48;2.35;;;13.20;99.90;;;;;;5000838;28;20033;-88
2023/08/28 07:23:38;;;;;;;12.27;2.13;;;13.10;99.90;;;;;;4998580;28;20030;-88
2023/08/28 07:26:03;;;;;;;7.15;1.65;;;13.20;99.90;;;;;;4999219;28;20050;-89
2023/08/28 07:28:30;;;;;;;9.18;2.15;;;13.20;99.90;;;;;;4995157;28;20022;-90
2023/08/28 07:30:57;;;;;;;10.75;2.08;;;13.30;99.90;;;;;;5000677;28;20033;-89
2023/08/28 07:33:23;;;;;;;9.60;1.98;;;13.30;99.90;;;;;;5019561;28;20088;-89
2023/08/28 07:35:49;;;;;;;9.63;2.05;;;13.30;99.90;;;;;;5011954;28;20446;-89
2023/08/28 07:38:15;;;;;;;6.20;1.52;;;13.40;99.90;;;;;;5007254;28;20431;-89
2023/08/28 07:40:41;;;;;;;11.68;1.77;;;13.40;99.90;;;;;;5002224;28;20085;-90
2023/08/28 07:43:07;;;;;;;7.15;1.50;;;13.50;99.90;;;;;;5010437;28;20492;-89
2023/08/28 07:45:32;;;;;;;6.15;1.60;;;13.50;99.90;;;;;;5019076;28;20447;-89
2023/08/28 07:47:59;;;;;;;12.68;1.42;;;13.60;99.90;;;;;;5017208;28;20109;-89
2023/08/28 07:50:28;;;;;;;11.00;1.45;;;13.70;99.90;;;;;;4996925;28;20030;-89
2023/08/28 07:52:53;;;;;;;6.28;1.50;;;13.70;99.90;;;;;;4996969;28;20022;-89
2023/08/28 07:55:19;;;;;;;5.50;1.58;;;13.70;99.90;;;;;;4992879;28;20046;-89
2023/08/28 07:57:45;;;;;;;4.85;1.50;;;13.80;99.90;;;;;;4995544;28;20100;-89
2023/08/28 08:00:13;;;;;;;7.00;1.70;;;13.90;99.90;;;;;;5000606;28;20028;-89
2023/08/28 08:02:40;;;;;;;4.93;1.20;;;14.00;99.90;;;;;;4997756;28;21438;-88
2023/08/28 08:05:07;;;;;;;8.93;1.55;;;14.10;99.90;;;;;;5013719;28;20029;-88
2023/08/28 08:07:33;;;;;;;7.70;1.40;;;14.10;99.90;;;;;;5013609;28;20026;-89
2023/08/28 08:09:58;;;;;;;8.35;2.75;;;14.20;99.90;;;;;;5007572;28;20653;-88
2023/08/28 08:12:26;;;;;;;10.95;1.60;;;14.20;99.90;;;;;;5003244;28;20413;-88
2023/08/28 08:14:52;;;;;;;7.95;1.75;;;14.30;99.90;;;;;;5010582;28;20055;-89
2023/08/28 08:17:18;;;;;;;5.82;1.73;;;14.40;99.90;;;;;;5020548;28;20052;-89
2023/08/28 08:19:43;;;;;;;6.60;1.70;;;14.40;99.90;;;;;;5017469;28;20029;-87
2023/08/28 08:22:09;;;;;;;9.20;1.45;;;14.50;99.90;;;;;;5017467;28;20491;-86
2023/08/28 08:24:35;;;;;;;7.25;1.30;;;14.50;99.90;;;;;;5017350;28;20025;-88
2023/08/28 08:27:01;;;;;;;9.05;1.42;;;14.60;99.90;;;;;;5021992;28;20045;-88
2023/08/28 08:29:26;;;;;;;5.40;1.63;;;14.70;99.90;;;;;;4997465;28;20029;-89
2023/08/28 08:31:52;;;;;;;4.88;1.42;;;14.80;99.90;;;;;;4994844;28;20030;-88
2023/08/28 08:34:20;;;;;;;7.82;1.63;;;14.80;99.90;;;;;;4995608;28;20034;-88
2023/08/28 08:36:46;;;;;;;8.02;1.35;;;14.90;99.90;;;;;;4996983;28;20154;-88
2023/08/28 08:39:11;;;;;;;6.10;1.63;;;14.90;99.90;;;;;;5015811;28;20104;-88
2023/08/28 08:41:39;;;;;;;8.88;1.60;;;14.90;99.90;;;;;;4995447;28;20434;-88
2023/08/28 08:44:05;;;;;;;5.18;1.48;;;15.00;99.90;;;;;;4997791;28;20503;-87
2023/08/28 08:46:32;;;;;;;4.32;1.30;;;15.00;99.90;;;;;;4992928;28;20057;-88
2023/08/28 08:49:00;;;;;;;6.18;1.20;;;15.10;99.90;;;;;;4992815;28;20030;-89
2023/08/28 08:51:30;;;;;;;7.22;1.23;;;15.20;99.90;;;;;;4993083;28;20029;-89
2023/08/28 08:53:55;;;;;;;3.13;1.10;;;15.30;99.90;;;;;;4992876;28;20404;-88
2023/08/28 08:56:23;;;;;;;7.65;1.55;;;15.40;99.90;;;;;;4991194;28;20042;-88
2023/08/28 08:58:50;;;;;;;7.18;1.40;;;15.50;99.90;;;;;;4989826;28;20533;-88
2023/08/28 09:01:16;;;;;;;8.05;1.60;;;15.60;99.90;;;;;;4987050;28;20113;-90
2023/08/28 09:03:43;;;;;;;4.40;1.38;;;15.70;99.90;;;;;;4990460;28;20034;-90
2023/08/28 09:06:10;;;;;;;3.63;1.02;;;15.80;99.90;;;;;;4991381;28;20689;-89
2023/08/28 09:08:39;;;;;;;8.30;1.85;;;15.80;99.90;;;;;;4991862;28;20113;-88
2023/08/28 09:11:05;;;;;;;4.95;1.10;;;15.90;99.90;;;;;;4990358;28;20022;-90
2023/08/28 09:13:31;;;;;;;3.65;0.98;;;15.80;99.90;;;;;;4992003;28;20026;-90
2023/08/28 09:15:57;;;;;;;4.38;1.00;;;15.90;99.90;;;;;;4991835;28;20506;-88
2023/08/28 09:18:25;;;;;;;5.85;1.25;;;15.80;99.90;;;;;;4993442;28;20026;-89
2023/08/28 09:21:11;;;;;;;4.78;1.08;;;15.80;99.90;;;;;;4992201;28;20026;-89
2023/08/28 09:23:42;;;;;;;2.83;1.10;;;15.90;99.90;;;;;;4992316;28;20027;-89
2023/08/28 09:26:11;;;;;;;4.93;1.20;;;16.00;99.90;;;;;;4993194;28;20026;-89
2023/08/28 09:28:36;;;;;;;2.92;1.30;;;16.10;99.80;;;;;;4992143;28;20023;-88
2023/08/28 09:31:02;;;;;;;4.50;1.25;;;16.30;99.20;;;;;;4992014;28;20036;-88
2023/08/28 09:33:44;;;;;;;6.03;1.35;;;16.40;98.70;;;;;;4991785;28;20392;-89
2023/08/28 09:36:15;;;;;;;2.92;0.90;;;16.40;98.10;;;;;;4992616;28;20044;-89
2023/08/28 09:38:42;;;;;;;3.70;1.13;;;16.40;97.70;;;;;;4992608;28;20018;-89
2023/08/28 09:41:09;;;;;;;5.18;1.13;;;16.40;97.40;;;;;;4992152;28;20058;-89
2023/08/28 09:43:35;;;;;;;3.25;0.85;;;16.50;97.00;;;;;;4992729;28;20053;-89
2023/08/28 09:46:04;;;;;;;3.53;1.17;;;16.60;96.60;;;;;;4992766;28;20057;-88
2023/08/28 09:48:34;;;;;;;4.72;1.00;;;16.70;96.10;;;;;;4992613;28;20054;-89
2023/08/28 09:51:04;;;;;;;5.35;1.25;;;16.80;95.60;;;;;;4992977;28;20034;-89
2023/08/28 09:53:30;;;;;;;3.70;1.02;;;16.90;95.20;;;;;;4992514;28;20057;-89
2023/08/28 09:55:57;;;;;;;2.47;1.38;;;17.00;94.90;;;;;;4992605;28;20122;-90
2023/08/28 09:58:24;;;;;;;4.18;1.00;;;17.10;94.20;;;;;;4993469;28;20378;-89
2023/08/28 10:00:51;;;;;;;5.60;1.17;;;17.20;92.80;;;;;;4993216;28;20072;-89
2023/08/28 10:03:16;;;;;;;5.03;1.00;;;17.20;92.20;;;;;;4998250;28;20105;-89
2023/08/28 10:05:44;;;;;;;4.00;1.10;;;17.30;91.80;;;;;;4996109;28;20088;-89
2023/08/28 10:08:11;;;;;;;3.50;1.08;;;17.50;91.60;;;;;;4997362;28;20030;-88
2023/08/28 10:10:40;;;;;;;4.03;1.10;;;17.70;91.00;;;;;;4997341;28;20023;-90
2023/08/28 10:13:13;;;;;;;3.90;1.88;;;17.80;90.70;;;;;;4996372;28;20177;-89
2023/08/28 10:15:53;;;;;;;3.70;0.80;;;17.90;90.10;;;;;;4997773;28;20059;-89
2023/08/28 10:18:31;;;;;;;6.53;0.80;;;18.00;87.50;;;;;;4996375;28;20472;-89
2023/08/28 10:20:58;;;;;;;3.03;1.02;;;18.10;85.20;;;;;;4995838;28;20035;-89
2023/08/28 10:23:25;;;;;;;5.30;1.38;;;18.20;84.50;;;;;;4995482;28;20018;-89
2023/08/28 10:25:55;;;;;;;4.05;0.80;;;18.40;84.00;;;;;;4998636;28;20026;-89
2023/08/28 10:28:24;;;;;;;6.40;1.17;;;18.60;82.50;;;;;;4998443;28;20018;-90
2023/08/28 10:30:51;;;;;;;2.63;1.13;;;18.70;81.70;;;;;;4997675;28;20445;-89
2023/08/28 10:33:19;;;;;;;3.15;1.10;;;18.80;81.40;;;;;;4996053;28;20028;-90
2023/08/28 10:35:50;;;;;;;3.30;0.75;;;18.90;80.70;;;;;;4997810;28;20423;-89
2023/08/28 10:38:17;;;;;;;4.07;1.00;;;18.90;80.20;;;;;;4995799;28;20572;-88
2023/08/28 10:40:43;;;;;;;4.55;1.63;;;18.80;80.40;;;;;;4998149;28;20054;-89
2023/08/28 10:43:10;;;;;;;3.20;1.10;;;18.80;80.70;;;;;;4998023;28;20041;-90
2023/08/28 10:45:38;;;;;;;7.30;1.27;;;18.70;81.10;;;;;;4995511;28;20046;-91
2023/08/28 10:48:06;;;;;;;4.72;1.08;;;18.60;81.60;;;;;;4997466;28;20121;-90
2023/08/28 10:50:38;;;;;;;3.35;0.80;;;18.60;81.90;;;;;;4995780;28;20031;-90
2023/08/28 10:53:11;;;;;;;3.13;1.00;;;18.70;81.90;;;;;;4995725;28;20109;-90
2023/08/28 10:55:38;;;;;;;4.95;0.80;;;18.80;81.90;;;;;;4995682;28;20038;-90
2023/08/28 10:58:04;;;;;;;5.45;0.90;;;18.90;81.80;;;;;;4995948;28;20518;-90
2023/08/28 11:00:33;;;;;;;3.17;1.20;;;19.10;81.20;;;;;;4996457;28;20030;-90
2023/08/28 11:03:09;;;;;;;2.05;1.00;;;19.00;80.40;;;;;;4997165;28;20059;-89
2023/08/28 11:05:38;;;;;;;4.32;1.05;;;19.10;80.20;;;;;;4995649;28;20025;-89
2023/08/28 11:08:06;;;;;;;5.18;1.38;;;19.10;80.30;;;;;;4996961;28;20026;-91
2023/08/28 11:10:32;;;;;;;3.80;1.45;;;19.10;80.70;;;;;;4998739;28;20036;-89
2023/08/28 11:13:06;;;;;;;4.60;1.05;;;19.10;80.70;;;;;;4994274;28;20105;-89
2023/08/28 11:15:32;;;;;;;4.03;1.17;;;19.10;81.10;;;;;;4995199;28;20122;-89
2023/08/28 11:18:20;;;;;;;3.88;1.10;;;19.20;81.30;;;;;;4995491;28;20081;-90
2023/08/28 11:20:48;;;;;;;2.92;1.20;;;19.20;80.90;;;;;;4995137;28;20030;-91
2023/08/28 11:23:34;;;;;;;4.75;1.05;;;19.30;81.20;;;;;;4995264;28;20045;-89
2023/08/28 11:26:20;;;;;;;4.40;1.00;;;19.40;81.10;;;;;;4994708;28;20036;-89
2023/08/28 11:28:47;;;;;;;5.75;1.13;;;19.50;81.10;;;;;;4987420;28;20034;-89
2023/08/28 11:31:13;;;;;;;6.05;1.55;;;19.50;80.60;;;;;;4995780;28;20061;-89
2023/08/28 11:33:44;;;;;;;3.00;1.15;;;19.50;80.50;;;;;;4996163;28;20027;-90
2023/08/28 11:36:14;;;;;;;;;;;19.50;81.10;;;;;;4995722;28;20104;-91
2023/08/28 11:38:43;;;;;;;7.82;1.50;;;19.50;81.30;;;;;;4993617;28;19917;-89
2023/08/28 11:41:10;;;;;;;2.75;1.15;;;19.50;81.10;;;;;;4994996;28;20031;-90
2023/08/28 11:43:41;;;;;;;1.92;1.00;;;19.60;81.30;;;;;;4994732;28;20061;-89
2023/08/28 11:46:07;;;;;;;4.43;1.02;;;19.50;81.20;;;;;;5005222;28;20046;-89
2023/08/28 11:48:38;;;;;;;5.35;1.27;;;19.40;80.90;;;;;;4997940;28;20034;-91
2023/08/28 11:51:07;;;;;;;6.25;1.33;;;19.30;81.30;;;;;;4997693;28;20029;-90
2023/08/28 11:53:40;;;;;;;3.33;1.17;;;19.20;81.90;;;;;;4997650;28;20018;-90
2023/08/28 11:56:07;;;;;;;5.60;1.15;;;19.30;82.60;;;;;;4998175;28;20044;-90
2023/08/28 11:58:38;;;;;;;3.60;1.10;;;19.40;82.40;;;;;;4997838;28;20022;-90
2023/08/28 12:01:13;;;;;;;3.53;1.02;;;19.50;82.50;;;;;;4997648;28;20026;-89
2023/08/28 12:03:39;;;;;;;10.65;2.05;;;19.60;82.40;;;;;;4997476;28;20058;-90
2023/08/28 12:06:11;;;;;;;5.63;1.27;;;19.60;82.30;;;;;;4997116;28;20467;-89
2023/08/28 12:08:42;;;;;;;5.55;1.33;;;19.70;82.10;;;;;;4998070;28;20026;-90
2023/08/28 12:11:09;;;;;;;;;;;19.60;82.20;;;;;;4999257;28;20045;-91
2023/08/28 12:13:35;;;;;;;5.18;1.30;;;19.60;82.40;;;;;;4998275;28;20352;-89
2023/08/28 12:16:17;;;;;;;4.35;1.00;;;19.60;82.60;;;;;;4998206;28;20080;-89
2023/08/28 12:18:53;;;;;;;1.50;0.80;;;19.60;83.00;;;;;;4998124;28;20030;-89
2023/08/28 12:21:37;;;;;;;2.78;1.00;;;19.70;83.30;;;;;;5002136;28;20029;-89
2023/08/28 12:24:06;;;;;;;4.10;1.35;;;19.70;83.40;;;;;;5014607;28;20439;-90
2023/08/28 12:26:33;;;;;;;1.92;1.00;;;19.60;83.50;;;;;;4997445;28;20025;-89
2023/08/28 12:28:59;;;;;;;3.63;0.95;;;19.50;83.90;;;;;;4996888;28;20026;-88
2023/08/28 12:31:35;;;;;;;2.60;0.98;;;19.40;84.10;;;;;;4997004;28;20022;-89
2023/08/28 12:34:10;;;;;;;5.80;0.88;;;19.30;84.70;;;;;;5014086;28;20491;-89
2023/08/28 12:36:37;;;;;;;5.88;1.52;;;19.10;85.20;;;;;;4997025;28;20033;-87
2023/08/28 12:39:04;;;;;;;3.63;0.90;;;19.00;85.80;;;;;;4996798;28;20049;-89
2023/08/28 12:41:36;;;;;;;4.05;1.05;;;19.00;86.20;;;;;;4996679;28;20029;-89
2023/08/28 12:44:03;;;;;;;2.65;1.00;;;18.90;86.70;;;;;;4996873;28;20505;-89
2023/08/28 12:46:29;;;;;;;3.40;1.17;;;18.80;87.30;;;;;;4996684;28;20053;-89
2023/08/28 12:48:55;;;;;;;4.60;0.77;;;18.80;87.90;;;;;;4996068;28;20026;-88